createdAt,value
2022-12-06T00:23:10.402Z,1021.59
2022-12-06T00:51:29.850Z,1021.33
2022-12-06T01:19:49.109Z,1021.25
2022-12-06T01:47:59.569Z,1021.26
2022-12-06T02:16:55.031Z,1021.06
2022-12-06T02:45:32.273Z,1021.01
2022-12-06T03:14:22.434Z,1021
2022-12-06T03:43:18.225Z,1020.76
2022-12-06T04:11:30.766Z,1020.73
2022-12-06T04:39:38.766Z,1020.64
2022-12-06T05:07:45.033Z,1020.55
2022-12-06T05:36:06.278Z,1020.46
2022-12-06T06:04:26.092Z,1020.41
2022-12-06T06:32:35.065Z,1020.48
2022-12-06T07:01:00.182Z,1020.43
2022-12-06T07:29:09.992Z,1020.6
2022-12-06T07:57:44.588Z,1020.81
2022-12-06T08:25:52.189Z,1020.76
2022-12-06T08:54:15.509Z,1020.86
2022-12-06T09:22:39.627Z,1021.02
2022-12-06T09:50:58.810Z,1021.11
2022-12-06T10:19:14.038Z,1021.12
2022-12-06T10:47:32.644Z,1020.82
2022-12-06T11:15:56.246Z,1020.8
2022-12-06T11:44:16.844Z,1020.71
2022-12-06T12:12:33.244Z,1020.53
2022-12-06T12:40:52.820Z,1020.44
2022-12-06T13:09:05.636Z,1020.48
2022-12-06T13:37:27.893Z,1020.29
2022-12-06T14:34:14.853Z,1020.42
2022-12-06T15:02:22.922Z,1020.3
2022-12-06T15:30:46.682Z,1020.22
2022-12-06T15:59:04.548Z,1020.09
2022-12-06T16:27:58.388Z,1020.16
2022-12-06T16:56:56.371Z,1020.27
2022-12-06T17:25:44.984Z,1020.3
2022-12-06T17:54:34.251Z,1020.43
2022-12-06T18:23:28.225Z,1020.36
2022-12-06T18:52:14.381Z,1020.51
2022-12-06T19:21:05.711Z,1020.51
2022-12-06T19:50:04.266Z,1020.45
2022-12-06T20:18:48.790Z,1020.44
2022-12-06T20:47:07.400Z,1020.54
2022-12-06T21:15:27.332Z,1020.48
2022-12-06T21:43:45.211Z,1020.51
2022-12-06T22:12:04.958Z,1020.64
2022-12-06T22:40:21.944Z,1020.69
2022-12-06T23:08:41.739Z,1020.7
2022-12-06T23:36:55.064Z,1020.68
